Time;durP1;ratioP1;P1;durP2;ratioP2;P2;SDS_P1;SDS_P2;PMS_P1;PMS_P2;Temp;Humidity;BMP_temperature;BMP_pressure;BME280_temperature;BME280_humidity;BME280_pressure;Samples;Min_cycle;Max_cycle;Signal;HPM_P1;HPM_P2
2022/01/26 00:07:09;;;;;;;111.60;50.90;;;4.40;99.90;;;;;;5012172;28;20032;-77
2022/01/26 00:09:35;;;;;;;109.32;50.95;;;4.40;99.90;;;;;;5028331;28;20029;-77
2022/01/26 00:12:00;;;;;;;109.88;49.85;;;4.40;99.90;;;;;;5031730;28;20392;-77
2022/01/26 00:14:26;;;;;;;118.65;52.80;;;4.40;99.90;;;;;;5030812;28;20022;-77
2022/01/26 00:16:52;;;;;;;108.70;50.30;;;4.30;99.90;;;;;;5013987;28;20471;-77
2022/01/26 00:19:25;;;;;;;116.05;51.17;;;4.30;99.90;;;;;;5031375;28;20029;-77
2022/01/26 00:21:52;;;;;;;116.53;53.72;;;4.30;99.90;;;;;;5031482;28;20064;-77
2022/01/26 00:29:25;;;;;;;107.57;51.67;;;4.30;99.90;;;;;;5031652;28;20026;-77
2022/01/26 00:40:30;;;;;;;110.25;51.83;;;4.30;99.90;;;;;;5031526;28;20052;-77
2022/01/26 00:43:01;;;;;;;107.75;50.53;;;4.30;99.90;;;;;;5013642;28;20269;-77
2022/01/26 00:45:34;;;;;;;111.28;51.42;;;4.30;99.90;;;;;;5013606;28;20116;-77
2022/01/26 00:48:06;;;;;;;113.75;50.13;;;4.30;99.90;;;;;;5013340;28;20054;-77
2022/01/26 00:50:34;;;;;;;113.13;53.28;;;4.30;99.90;;;;;;5013421;28;20407;-77
2022/01/26 00:53:00;;;;;;;115.55;53.38;;;4.30;99.90;;;;;;5029957;28;20368;-78
2022/01/26 00:55:26;;;;;;;119.27;50.60;;;4.30;99.90;;;;;;5030995;28;20029;-77
2022/01/26 00:57:52;;;;;;;108.63;50.25;;;4.30;99.90;;;;;;5031223;28;20025;-77
2022/01/26 01:00:27;;;;;;;113.57;53.30;;;4.30;99.90;;;;;;5031259;28;20056;-77
2022/01/26 01:02:54;;;;;;;106.97;51.15;;;4.30;99.90;;;;;;5031051;28;20025;-77
2022/01/26 01:05:25;;;;;;;108.95;50.83;;;4.30;99.90;;;;;;5031191;28;20107;-77
2022/01/26 01:07:57;;;;;;;109.80;50.08;;;4.30;99.90;;;;;;5031100;28;20092;-77
2022/01/26 01:10:24;;;;;;;120.95;53.13;;;4.30;99.90;;;;;;5031303;28;20558;-77
2022/01/26 01:12:55;;;;;;;107.90;50.17;;;4.30;99.90;;;;;;5031200;28;20072;-77
2022/01/26 01:15:24;;;;;;;114.43;50.57;;;4.30;99.90;;;;;;5030919;28;20060;-77
2022/01/26 01:17:54;;;;;;;118.55;52.30;;;4.30;99.90;;;;;;5031024;28;20049;-77
2022/01/26 01:24:11;;;;;;;114.05;51.25;;;4.20;99.90;;;;;;5007785;28;20029;-78
2022/01/26 01:31:11;;;;;;;112.53;52.37;;;4.20;99.90;;;;;;5034652;28;20446;-77
2022/01/26 01:33:43;;;;;;;106.80;52.60;;;4.10;99.90;;;;;;5034554;28;20072;-77
2022/01/26 01:36:12;;;;;;;112.22;52.75;;;4.10;99.90;;;;;;5032976;28;20075;-77
2022/01/26 01:38:43;;;;;;;111.20;51.83;;;4.10;99.90;;;;;;5034518;28;20018;-78
2022/01/26 01:41:09;;;;;;;103.53;50.73;;;4.10;99.90;;;;;;5016606;28;20104;-78
2022/01/26 01:43:37;;;;;;;117.33;50.47;;;4.10;99.90;;;;;;5034397;28;20483;-77
2022/01/26 01:46:04;;;;;;;99.63;48.90;;;4.10;99.90;;;;;;5034303;28;20021;-78
2022/01/26 01:48:32;;;;;;;114.30;52.80;;;4.10;99.90;;;;;;5013121;28;20069;-78
2022/01/26 01:51:01;;;;;;;114.45;54.55;;;4.10;99.90;;;;;;5014504;28;20025;-78
2022/01/26 01:53:35;;;;;;;114.57;53.17;;;4.10;99.90;;;;;;5014324;28;20018;-78
2022/01/26 01:56:02;;;;;;;116.37;54.70;;;4.10;99.90;;;;;;5014192;28;20480;-77
2022/01/26 01:58:29;;;;;;;121.33;54.93;;;4.00;99.90;;;;;;5014214;28;20033;-78
2022/01/26 02:00:55;;;;;;;122.50;54.27;;;4.10;99.90;;;;;;5014163;28;20022;-78
2022/01/26 02:03:21;;;;;;;122.80;55.33;;;4.10;99.90;;;;;;5013642;28;20022;-77
2022/01/26 02:05:46;;;;;;;123.60;53.70;;;4.10;99.90;;;;;;4996576;28;20032;-77
2022/01/26 02:08:12;;;;;;;124.28;55.13;;;4.10;99.90;;;;;;5013960;28;20365;-78
2022/01/26 02:10:38;;;;;;;119.33;54.97;;;4.10;99.90;;;;;;4996508;28;20084;-77
2022/01/26 02:13:15;;;;;;;123.38;55.80;;;4.10;99.90;;;;;;5014164;28;20025;-77
2022/01/26 02:15:51;;;;;;;124.43;54.97;;;4.10;99.90;;;;;;5013871;28;20018;-78
2022/01/26 02:51:13;;;;;;;117.37;55.40;;;3.70;99.90;;;;;;5013560;28;20411;-77
2022/01/26 03:01:57;;;;;;;111.77;53.77;;;3.60;99.90;;;;;;5013486;28;20073;-77
2022/01/26 03:07:09;;;;;;;110.90;54.07;;;3.60;99.90;;;;;;5012967;28;20049;-78
2022/01/26 03:09:44;;;;;;;112.03;53.90;;;3.50;99.90;;;;;;5013060;28;20022;-77
2022/01/26 03:12:12;;;;;;;118.47;54.53;;;3.50;99.90;;;;;;5012883;28;20021;-77
2022/01/26 03:17:31;;;;;;;117.93;54.17;;;3.60;99.90;;;;;;4993127;28;20057;-78
2022/01/26 03:19:54;;;;;;;108.77;51.77;;;3.50;99.90;;;;;;4992179;28;20029;-77
2022/01/26 03:33:08;;;;;;;119.63;54.87;;;3.60;99.90;;;;;;4992990;28;20034;-77
2022/01/26 03:35:42;;;;;;;115.70;54.40;;;3.50;99.90;;;;;;4992490;28;20428;-77
2022/01/26 03:38:17;;;;;;;118.77;54.97;;;3.50;99.90;;;;;;4992737;28;20022;-77
2022/01/26 03:40:43;;;;;;;106.90;52.60;;;3.60;99.90;;;;;;4992727;28;20072;-77
2022/01/26 03:43:09;;;;;;;109.22;52.38;;;3.60;99.90;;;;;;4975335;28;20496;-77
2022/01/26 03:45:34;;;;;;;108.97;54.17;;;3.60;99.90;;;;;;4992761;28;20034;-78
2022/01/26 03:48:00;;;;;;;114.80;52.63;;;3.60;99.90;;;;;;5002068;28;20050;-77
2022/01/26 03:50:27;;;;;;;119.67;53.97;;;3.60;99.90;;;;;;5012196;28;20030;-77
2022/01/26 03:52:53;;;;;;;108.30;51.37;;;3.60;99.90;;;;;;4994295;28;20480;-77
2022/01/26 03:55:19;;;;;;;109.40;52.67;;;3.60;99.90;;;;;;5012267;28;20037;-78
2022/01/26 03:57:44;;;;;;;113.40;52.27;;;3.60;99.90;;;;;;5012011;28;20029;-77
2022/01/26 04:00:11;;;;;;;107.87;54.77;;;3.60;99.90;;;;;;5012176;28;20022;-77
2022/01/26 04:02:37;;;;;;;113.90;52.70;;;3.60;99.90;;;;;;5012119;28;20105;-77
2022/01/26 04:05:07;;;;;;;114.93;53.30;;;3.60;99.90;;;;;;4994363;28;20061;-77
2022/01/26 04:07:33;;;;;;;108.63;51.50;;;3.60;99.90;;;;;;5012025;28;20057;-77
2022/01/26 04:10:08;;;;;;;109.47;52.67;;;3.60;99.90;;;;;;4994446;28;20022;-77
2022/01/26 04:12:37;;;;;;;106.23;52.37;;;3.60;99.90;;;;;;5011911;28;20034;-77
2022/01/26 04:15:11;;;;;;;115.00;53.83;;;3.60;99.90;;;;;;5011883;28;20388;-77
2022/01/26 04:17:37;;;;;;;120.27;53.90;;;3.60;99.90;;;;;;5011852;28;20058;-77
2022/01/26 04:20:03;;;;;;;113.73;52.60;;;3.60;99.90;;;;;;4994288;28;20099;-77
2022/01/26 04:22:37;;;;;;;110.97;52.50;;;3.60;99.90;;;;;;5011801;28;20512;-78
2022/01/26 04:25:05;;;;;;;111.40;52.03;;;3.60;99.90;;;;;;4994180;28;20033;-78
2022/01/26 04:27:39;;;;;;;116.70;53.60;;;3.60;99.90;;;;;;5011916;28;20037;-78
2022/01/26 04:30:06;;;;;;;114.70;53.83;;;3.50;99.90;;;;;;5011644;28;20328;-77
2022/01/26 04:32:32;;;;;;;112.10;54.43;;;3.60;99.90;;;;;;5011760;28;20022;-77
2022/01/26 04:34:58;;;;;;;109.73;51.30;;;3.50;99.90;;;;;;5011793;28;20401;-77
2022/01/26 04:40:03;;;;;;;115.07;53.23;;;3.60;99.90;;;;;;5012021;28;20038;-77
2022/01/26 04:42:50;;;;;;;115.13;53.33;;;3.60;99.90;;;;;;5011885;28;20392;-77
2022/01/26 04:45:16;;;;;;;118.37;54.73;;;3.60;99.90;;;;;;5011884;28;20048;-77
2022/01/26 04:47:42;;;;;;;120.83;55.03;;;3.60;99.90;;;;;;4993973;28;20419;-77
2022/01/26 04:50:09;;;;;;;114.07;53.13;;;3.60;99.90;;;;;;5011570;28;20026;-77
2022/01/26 04:52:36;;;;;;;117.97;54.70;;;3.60;99.90;;;;;;5011781;28;20105;-77
2022/01/26 04:55:02;;;;;;;112.30;53.17;;;3.70;99.90;;;;;;5011598;28;20026;-77
2022/01/26 04:57:27;;;;;;;106.03;51.07;;;3.70;99.90;;;;;;5011461;28;20428;-77
2022/01/26 04:59:53;;;;;;;118.43;53.07;;;3.70;99.90;;;;;;5011571;28;20022;-77
2022/01/26 05:02:19;;;;;;;105.53;51.17;;;3.70;99.90;;;;;;4997273;28;20026;-77
2022/01/26 05:04:44;;;;;;;105.80;52.77;;;3.70;99.90;;;;;;5015211;28;20600;-77
2022/01/26 05:07:10;;;;;;;115.37;53.93;;;3.70;99.90;;;;;;5015266;28;20085;-77
2022/01/26 05:09:36;;;;;;;119.70;54.10;;;3.80;99.90;;;;;;4997654;28;20511;-77
2022/01/26 05:12:03;;;;;;;105.43;52.33;;;3.80;99.90;;;;;;4997573;28;20087;-77
2022/01/26 05:14:29;;;;;;;113.05;50.85;;;3.80;99.90;;;;;;4997457;28;20037;-77
2022/01/26 05:16:55;;;;;;;105.87;51.77;;;3.70;99.90;;;;;;5015512;28;20079;-77
2022/01/26 05:19:20;;;;;;;110.63;52.00;;;3.70;99.90;;;;;;5015074;28;20029;-78
2022/01/26 05:21:46;;;;;;;109.03;51.00;;;3.80;99.90;;;;;;5015023;28;20030;-78
2022/01/26 05:24:12;;;;;;;112.70;52.83;;;3.80;99.90;;;;;;5015021;28;20022;-78
2022/01/26 05:26:40;;;;;;;106.00;52.07;;;3.70;99.90;;;;;;4996873;28;20231;-77
2022/01/26 05:29:06;;;;;;;111.60;53.10;;;3.80;99.90;;;;;;4996927;28;20502;-77
2022/01/26 05:31:32;;;;;;;111.53;51.73;;;3.80;99.90;;;;;;4998072;28;20029;-77
2022/01/26 05:33:58;;;;;;;109.18;53.70;;;3.80;99.90;;;;;;5016044;28;20048;-78
2022/01/26 05:36:24;;;;;;;103.63;52.63;;;3.80;99.90;;;;;;5013785;28;20033;-78
2022/01/26 05:38:50;;;;;;;108.13;51.33;;;3.80;99.90;;;;;;5004783;28;20093;-77
2022/01/26 05:41:17;;;;;;;105.37;50.23;;;3.70;99.90;;;;;;5003074;28;20032;-78
2022/01/26 05:43:43;;;;;;;110.37;50.53;;;3.80;99.90;;;;;;5004396;28;20251;-78
2022/01/26 05:46:22;;;;;;;101.73;49.50;;;3.80;99.90;;;;;;5003778;28;20495;-78
2022/01/26 05:48:48;;;;;;;112.63;52.63;;;3.80;99.90;;;;;;5002854;28;20062;-78
2022/01/26 05:51:15;;;;;;;106.63;51.37;;;3.70;99.90;;;;;;5005087;28;20153;-77
2022/01/26 05:53:41;;;;;;;111.10;53.10;;;3.70;99.90;;;;;;5009890;28;20026;-78
2022/01/26 05:56:08;;;;;;;104.83;50.33;;;3.70;99.90;;;;;;5015522;28;20026;-77
2022/01/26 05:58:34;;;;;;;112.60;52.53;;;3.80;99.90;;;;;;4997983;28;20448;-77
2022/01/26 06:01:01;;;;;;;112.97;52.77;;;3.80;99.90;;;;;;5015525;28;20022;-78
2022/01/26 06:03:30;;;;;;;107.20;51.77;;;3.80;99.90;;;;;;4997942;28;20447;-78
2022/01/26 06:05:57;;;;;;;103.57;49.07;;;3.80;99.90;;;;;;5015521;28;20026;-77
2022/01/26 06:08:24;;;;;;;108.97;49.60;;;3.80;99.90;;;;;;5015013;28;20029;-77
2022/01/26 06:10:55;;;;;;;99.07;47.20;;;3.80;99.90;;;;;;5015080;28;20033;-77
2022/01/26 06:13:21;;;;;;;106.23;52.43;;;3.70;99.90;;;;;;4994946;28;20037;-77
2022/01/26 06:15:47;;;;;;;114.53;52.17;;;3.70;99.90;;;;;;5012514;28;20034;-77
2022/01/26 06:18:13;;;;;;;106.83;51.00;;;3.70;99.90;;;;;;5015149;28;20022;-78
2022/01/26 06:20:40;;;;;;;110.47;52.73;;;3.80;99.90;;;;;;4997206;28;20088;-73
2022/01/26 06:23:06;;;;;;;115.32;53.50;;;3.80;99.90;;;;;;4996168;28;20165;-73
2022/01/26 06:25:33;;;;;;;119.70;54.13;;;3.70;99.90;;;;;;5013621;28;20036;-73
2022/01/26 06:28:00;;;;;;;118.43;53.67;;;3.70;99.90;;;;;;5012341;28;20300;-73
2022/01/26 06:30:26;;;;;;;115.90;54.20;;;3.70;99.90;;;;;;5010482;28;20459;-73
2022/01/26 06:32:53;;;;;;;116.27;54.00;;;3.70;99.90;;;;;;4993996;28;20037;-73
2022/01/26 06:35:19;;;;;;;109.53;53.00;;;3.70;99.90;;;;;;4994072;28;20391;-73
2022/01/26 06:37:44;;;;;;;112.73;52.43;;;3.70;99.90;;;;;;5010480;28;20403;-73
2022/01/26 06:40:10;;;;;;;113.23;51.87;;;3.70;99.90;;;;;;5011749;28;20030;-73
2022/01/26 06:42:50;;;;;;;115.40;54.33;;;3.70;99.90;;;;;;5012062;28;20014;-73
2022/01/26 06:45:23;;;;;;;109.65;53.45;;;3.80;99.90;;;;;;5013392;28;20021;-73
2022/01/26 06:50:34;;;;;;;122.60;53.40;;;3.80;99.90;;;;;;5013460;28;20037;-73
2022/01/26 06:53:00;;;;;;;115.57;53.77;;;3.80;99.90;;;;;;5013190;28;20057;-73
2022/01/26 06:55:26;;;;;;;118.83;53.77;;;3.90;99.90;;;;;;5013082;28;20026;-73
2022/01/26 06:57:52;;;;;;;117.93;54.80;;;3.90;99.90;;;;;;5013075;28;20022;-73
2022/01/26 07:00:17;;;;;;;120.83;53.70;;;3.80;99.90;;;;;;5013063;28;20041;-73
2022/01/26 07:02:43;;;;;;;121.67;54.73;;;3.90;99.90;;;;;;4995537;28;20472;-73
2022/01/26 07:05:11;;;;;;;129.53;57.33;;;3.80;99.90;;;;;;5012984;28;20033;-73
2022/01/26 07:07:37;;;;;;;123.60;54.27;;;3.80;99.90;;;;;;5012781;28;20080;-73
2022/01/26 07:10:05;;;;;;;123.47;53.83;;;3.80;99.90;;;;;;4995262;28;20273;-73
2022/01/26 07:12:32;;;;;;;127.27;56.10;;;3.70;99.90;;;;;;5013147;28;20100;-74
2022/01/26 07:22:53;;;;;;;130.90;58.47;;;3.70;99.90;;;;;;5013446;28;20488;-73
2022/01/26 07:25:18;;;;;;;126.50;55.97;;;3.70;99.90;;;;;;5013249;28;20030;-73
2022/01/26 07:27:45;;;;;;;137.80;56.90;;;3.70;99.90;;;;;;5013478;28;20400;-74
2022/01/26 07:30:11;;;;;;;136.02;57.65;;;3.80;99.90;;;;;;5013973;28;20028;-73
2022/01/26 07:32:37;;;;;;;131.87;56.70;;;3.70;99.90;;;;;;5013625;28;20025;-73
2022/01/26 07:35:04;;;;;;;124.30;55.13;;;3.80;99.90;;;;;;5013751;28;20028;-73
2022/01/26 07:37:30;;;;;;;130.33;56.20;;;3.80;99.90;;;;;;4995998;28;20434;-73
2022/01/26 07:40:09;;;;;;;127.07;53.67;;;3.90;99.90;;;;;;4995685;28;20038;-73
2022/01/26 07:42:36;;;;;;;124.43;52.83;;;3.90;99.90;;;;;;5012661;28;20101;-73
2022/01/26 07:45:08;;;;;;;120.27;54.60;;;3.90;99.90;;;;;;5013581;28;20057;-73
2022/01/26 07:47:34;;;;;;;121.73;55.50;;;3.90;99.90;;;;;;5019036;28;20045;-73
2022/01/26 07:50:01;;;;;;;130.27;55.67;;;4.00;99.90;;;;;;5033273;28;20030;-73
2022/01/26 07:52:30;;;;;;;126.10;55.37;;;3.90;99.90;;;;;;5033431;28;20033;-73
2022/01/26 07:54:59;;;;;;;135.97;56.50;;;4.00;99.90;;;;;;5033182;28;20017;-73
2022/01/26 07:57:26;;;;;;;123.30;54.47;;;4.10;99.90;;;;;;5032816;28;20026;-73
2022/01/26 07:59:53;;;;;;;126.53;54.77;;;4.10;99.90;;;;;;5033096;28;20502;-73
2022/01/26 08:02:20;;;;;;;124.90;55.27;;;4.10;99.90;;;;;;5014996;28;20028;-73
2022/01/26 08:04:45;;;;;;;135.82;59.30;;;4.10;99.90;;;;;;5033063;28;20033;-73
2022/01/26 08:07:11;;;;;;;139.10;60.47;;;4.10;99.90;;;;;;5013957;28;20391;-74
2022/01/26 08:09:43;;;;;;;132.37;56.33;;;4.00;99.90;;;;;;5031752;28;20029;-73
2022/01/26 08:12:12;;;;;;;113.43;55.38;;;4.00;99.90;;;;;;5031492;28;20025;-73
2022/01/26 08:14:38;;;;;;;116.77;52.07;;;4.00;99.90;;;;;;5031683;28;20143;-73
2022/01/26 08:17:08;;;;;;;106.00;49.80;;;4.00;99.90;;;;;;5031392;28;20033;-73
2022/01/26 08:19:34;;;;;;;109.67;49.33;;;3.90;99.90;;;;;;5013237;28;20083;-73
2022/01/26 08:22:01;;;;;;;112.25;51.83;;;3.90;99.90;;;;;;5011884;28;20245;-78
2022/01/26 08:24:28;;;;;;;109.50;50.33;;;3.90;99.90;;;;;;5030736;28;20017;-77
2022/01/26 08:26:56;;;;;;;104.93;49.97;;;3.90;99.90;;;;;;5030634;28;20450;-78
2022/01/26 08:29:28;;;;;;;103.13;51.47;;;4.00;99.90;;;;;;5030747;28;20018;-77
2022/01/26 08:31:53;;;;;;;114.90;52.25;;;4.00;99.90;;;;;;5031026;28;20032;-78
2022/01/26 08:34:19;;;;;;;115.23;50.23;;;4.00;99.90;;;;;;5031694;28;20419;-78
2022/01/26 08:36:45;;;;;;;116.68;50.08;;;4.10;99.90;;;;;;5034215;28;20270;-77
2022/01/26 08:39:11;;;;;;;116.43;49.90;;;4.10;99.90;;;;;;5035570;28;20033;-77
2022/01/26 08:41:37;;;;;;;109.72;51.30;;;4.10;99.90;;;;;;5035618;28;20437;-78
2022/01/26 08:44:03;;;;;;;110.07;50.58;;;4.20;99.90;;;;;;5035403;28;20108;-77
2022/01/26 08:46:29;;;;;;;111.50;49.97;;;4.10;99.90;;;;;;5035578;28;20152;-77
2022/01/26 08:48:55;;;;;;;105.82;50.53;;;4.10;99.90;;;;;;5035253;28;20045;-78
2022/01/26 08:51:24;;;;;;;118.50;53.07;;;4.20;99.90;;;;;;5035520;28;20029;-78
2022/01/26 08:53:49;;;;;;;112.30;53.17;;;4.20;99.90;;;;;;5035479;28;20483;-77
2022/01/26 08:56:16;;;;;;;110.65;51.88;;;4.10;99.90;;;;;;5035424;28;20032;-77
2022/01/26 08:58:42;;;;;;;122.03;53.70;;;4.10;99.90;;;;;;5035452;28;20021;-77
2022/01/26 09:01:07;;;;;;;106.50;48.13;;;4.20;99.90;;;;;;5035538;28;20100;-77
2022/01/26 09:03:38;;;;;;;106.10;48.77;;;4.20;99.90;;;;;;5017464;28;20387;-77
2022/01/26 09:06:04;;;;;;;117.78;50.53;;;4.30;99.90;;;;;;5017656;28;20029;-78
2022/01/26 09:08:30;;;;;;;103.47;47.65;;;4.20;99.90;;;;;;5035059;28;20036;-77
2022/01/26 09:11:00;;;;;;;114.65;50.95;;;4.20;99.90;;;;;;5017472;28;20048;-77
2022/01/26 09:13:29;;;;;;;114.20;51.55;;;4.30;99.90;;;;;;5035253;28;20148;-77
2022/01/26 09:15:56;;;;;;;122.30;50.53;;;4.10;99.90;;;;;;5034936;28;20041;-77
2022/01/26 09:18:32;;;;;;;115.57;51.80;;;4.20;99.90;;;;;;5034929;28;20022;-77
2022/01/26 09:20:57;;;;;;;125.20;52.67;;;4.20;99.90;;;;;;5034774;28;20024;-77
2022/01/26 09:23:23;;;;;;;120.37;53.20;;;4.20;99.90;;;;;;5034920;28;20192;-77
2022/01/26 09:25:49;;;;;;;123.53;55.53;;;4.00;99.90;;;;;;5016701;28;20025;-77
2022/01/26 09:28:15;;;;;;;135.63;57.15;;;4.00;99.90;;;;;;5034585;28;20032;-77
2022/01/26 09:30:40;;;;;;;133.07;56.85;;;4.10;99.90;;;;;;5035006;28;20155;-77
2022/01/26 09:33:06;;;;;;;132.82;57.17;;;4.20;99.90;;;;;;5034906;28;20030;-77
2022/01/26 09:35:32;;;;;;;121.20;53.80;;;4.30;99.90;;;;;;5016892;28;20036;-77
2022/01/26 09:37:58;;;;;;;127.15;56.75;;;4.40;99.90;;;;;;5034668;28;20041;-77
2022/01/26 09:40:23;;;;;;;121.28;55.50;;;4.50;99.90;;;;;;5034820;28;20017;-77
2022/01/26 09:42:51;;;;;;;124.93;56.43;;;4.50;99.90;;;;;;5034584;28;20036;-77
2022/01/26 09:45:17;;;;;;;134.48;57.75;;;4.50;99.90;;;;;;5034508;28;20033;-77
2022/01/26 09:47:44;;;;;;;128.45;55.22;;;4.50;99.90;;;;;;5033748;28;20068;-78
2022/01/26 09:50:10;;;;;;;122.63;52.03;;;4.50;99.90;;;;;;5034402;28;20373;-77
2022/01/26 09:52:41;;;;;;;130.68;54.78;;;4.50;99.90;;;;;;5016603;28;20091;-77
2022/01/26 09:55:08;;;;;;;130.25;55.15;;;4.60;99.90;;;;;;5016752;28;20053;-77
2022/01/26 09:57:34;;;;;;;114.75;52.97;;;4.60;99.90;;;;;;5034390;28;20491;-77
2022/01/26 10:00:02;;;;;;;132.30;57.13;;;4.60;99.90;;;;;;5016459;28;20087;-77
2022/01/26 10:02:31;;;;;;;124.47;56.15;;;4.60;99.90;;;;;;5034216;28;20032;-77
2022/01/26 10:05:05;;;;;;;126.53;54.53;;;4.70;99.90;;;;;;5016466;28;20070;-77
2022/01/26 10:10:32;;;;;;;130.93;56.53;;;4.80;99.90;;;;;;5034261;28;20021;-77
2022/01/26 10:15:58;;;;;;;119.53;54.72;;;4.90;99.90;;;;;;5034075;28;20041;-77
2022/01/26 10:18:24;;;;;;;124.35;55.08;;;4.90;99.90;;;;;;5016133;28;20025;-77
2022/01/26 10:20:58;;;;;;;118.25;52.97;;;5.00;99.90;;;;;;5033855;28;20022;-77
2022/01/26 10:23:34;;;;;;;121.35;52.05;;;5.00;99.90;;;;;;5016167;28;20032;-77
2022/01/26 10:26:18;;;;;;;123.38;50.75;;;5.10;99.90;;;;;;5033923;28;20061;-77
2022/01/26 10:28:53;;;;;;;121.85;53.47;;;5.10;99.90;;;;;;5033682;28;20045;-77
2022/01/26 10:31:23;;;;;;;111.93;49.92;;;5.10;99.90;;;;;;5033856;28;20022;-77
2022/01/26 10:34:02;;;;;;;117.15;49.95;;;5.10;99.90;;;;;;5034538;28;20053;-77
2022/01/26 10:36:57;;;;;;;112.68;47.20;;;5.20;99.90;;;;;;5015577;28;20081;-78
2022/01/26 10:39:34;;;;;;;114.00;49.63;;;5.10;99.90;;;;;;5031632;28;20037;-77
2022/01/26 10:42:05;;;;;;;117.50;50.45;;;5.20;99.90;;;;;;5033541;28;20028;-77
2022/01/26 10:44:39;;;;;;;114.20;50.50;;;5.20;99.90;;;;;;5033485;28;20026;-78
2022/01/26 10:47:06;;;;;;;106.05;48.60;;;5.20;99.90;;;;;;5031206;28;20018;-77
2022/01/26 10:52:56;;;;;;;105.40;47.65;;;5.40;99.90;;;;;;5013742;28;20030;-77
2022/01/26 10:55:06;;;;;;;104.38;46.92;;;5.40;99.90;;;;;;5007719;28;20041;-77
2022/01/26 10:57:34;;;;;;;105.15;46.15;;;5.50;99.90;;;;;;5013367;28;20025;-77
2022/01/26 11:00:02;;;;;;;109.28;48.63;;;5.50;99.90;;;;;;5012839;28;20334;-77
2022/01/26 11:02:31;;;;;;;119.68;48.22;;;5.50;99.90;;;;;;5013437;28;20025;-78
2022/01/26 11:04:57;;;;;;;118.18;48.50;;;5.50;99.90;;;;;;5013171;28;20026;-77
2022/01/26 11:07:44;;;;;;;108.25;47.30;;;5.50;99.90;;;;;;5013217;28;20032;-77
2022/01/26 11:10:12;;;;;;;112.07;47.92;;;5.50;99.90;;;;;;5013187;28;20075;-77
2022/01/26 11:12:40;;;;;;;111.00;47.72;;;5.60;99.90;;;;;;4995644;28;20056;-78
2022/01/26 11:15:08;;;;;;;108.53;47.00;;;5.50;99.90;;;;;;5013142;28;20034;-77
2022/01/26 11:17:42;;;;;;;111.00;49.13;;;5.60;99.90;;;;;;5013074;28;20475;-77
2022/01/26 11:20:18;;;;;;;111.43;46.63;;;5.60;99.90;;;;;;5013120;28;20064;-77
2022/01/26 11:22:56;;;;;;;104.50;45.63;;;5.60;99.90;;;;;;5013021;28;20427;-77
2022/01/26 11:25:23;;;;;;;122.22;46.95;;;5.60;99.90;;;;;;4995425;28;20026;-78
2022/01/26 11:27:50;;;;;;;108.70;47.70;;;5.60;99.90;;;;;;4995118;28;20116;-77
2022/01/26 11:30:18;;;;;;;115.93;47.83;;;5.60;99.90;;;;;;5009793;28;20491;-77
2022/01/26 11:33:18;;;;;;;114.28;47.10;;;5.60;99.90;;;;;;5012829;28;20030;-77
2022/01/26 11:35:48;;;;;;;104.95;44.40;;;5.70;99.90;;;;;;5012656;28;20052;-77
2022/01/26 11:47:08;;;;;;;114.22;48.55;;;5.90;99.90;;;;;;5012411;28;20068;-77
2022/01/26 11:49:43;;;;;;;112.97;45.65;;;6.00;99.90;;;;;;5012514;28;20065;-77
2022/01/26 11:52:23;;;;;;;105.20;45.95;;;5.90;99.90;;;;;;5012366;28;20495;-77
2022/01/26 11:54:52;;;;;;;110.60;45.35;;;5.90;99.90;;;;;;5012368;28;20073;-77
2022/01/26 11:57:21;;;;;;;108.38;44.70;;;6.00;99.90;;;;;;5012150;28;20018;-77
2022/01/26 11:59:59;;;;;;;109.85;46.42;;;6.00;99.90;;;;;;4994654;28;20024;-77
2022/01/26 12:02:43;;;;;;;106.03;45.25;;;6.10;99.90;;;;;;4994604;28;20080;-76
2022/01/26 12:05:12;;;;;;;104.40;44.72;;;6.20;99.90;;;;;;5012435;28;20026;-77
2022/01/26 12:07:53;;;;;;;110.43;46.13;;;6.20;99.90;;;;;;5011974;28;20079;-77
2022/01/26 12:10:28;;;;;;;110.47;47.08;;;6.20;99.90;;;;;;5012306;28;20030;-77
2022/01/26 12:13:09;;;;;;;119.03;47.40;;;6.10;99.90;;;;;;5012200;28;20139;-78
2022/01/26 12:16:12;;;;;;;104.85;45.80;;;6.00;99.90;;;;;;5012136;28;20033;-77
2022/01/26 12:18:35;;;;;;;107.05;46.58;;;5.90;99.90;;;;;;5010559;28;20398;-77
2022/01/26 12:38:20;;;;;;;115.97;48.20;;;6.20;99.90;;;;;;5011902;28;20030;-77
2022/01/26 12:43:45;;;;;;;109.60;46.38;;;6.30;99.90;;;;;;5011889;28;20037;-78
2022/01/26 12:46:19;;;;;;;106.38;46.20;;;6.30;99.90;;;;;;5011584;28;20491;-78
2022/01/26 12:48:57;;;;;;;110.05;46.03;;;6.40;99.90;;;;;;5011753;28;20056;-77
2022/01/26 12:51:23;;;;;;;118.13;48.30;;;6.40;99.90;;;;;;5011821;28;20030;-77
2022/01/26 12:53:58;;;;;;;116.45;47.25;;;6.40;99.90;;;;;;4994131;28;20069;-77
2022/01/26 12:56:26;;;;;;;116.85;47.83;;;6.30;99.90;;;;;;4994068;28;20026;-77
2022/01/26 12:59:06;;;;;;;102.75;44.67;;;6.30;99.90;;;;;;5011821;28;20033;-77
2022/01/26 13:01:33;;;;;;;106.53;44.50;;;6.30;99.90;;;;;;4994035;28;20022;-77
2022/01/26 13:04:01;;;;;;;114.05;47.40;;;6.20;99.90;;;;;;4994019;28;20018;-77
2022/01/26 13:06:31;;;;;;;117.93;47.90;;;6.20;99.90;;;;;;5011611;28;20037;-77
2022/01/26 13:08:59;;;;;;;115.43;48.55;;;6.20;99.90;;;;;;4994092;28;20034;-77
2022/01/26 13:11:24;;;;;;;111.38;45.45;;;6.10;99.90;;;;;;5011661;28;20030;-77
2022/01/26 13:14:02;;;;;;;126.82;49.13;;;6.10;99.90;;;;;;4993981;28;20030;-77
2022/01/26 13:16:35;;;;;;;111.38;46.47;;;6.20;99.90;;;;;;5011509;28;20033;-77
2022/01/26 13:22:26;;;;;;;117.90;47.88;;;6.20;99.90;;;;;;5012708;28;20153;-77
2022/01/26 13:30:06;;;;;;;117.82;46.65;;;6.30;99.90;;;;;;5015046;28;20037;-77
2022/01/26 13:53:50;;;;;;;120.80;48.45;;;6.30;99.90;;;;;;5024130;28;20491;-78
2022/01/26 13:56:40;;;;;;;119.38;47.28;;;6.30;99.90;;;;;;5033738;28;20033;-78
2022/01/26 13:59:14;;;;;;;111.50;47.45;;;6.30;99.90;;;;;;5034355;28;20021;-77
2022/01/26 14:01:44;;;;;;;112.38;49.17;;;6.20;99.90;;;;;;5016548;28;20395;-77
2022/01/26 14:04:10;;;;;;;125.65;50.65;;;6.10;99.90;;;;;;5033927;28;20018;-77
2022/01/26 14:06:36;;;;;;;121.82;49.72;;;6.10;99.90;;;;;;5033983;28;20028;-77
2022/01/26 14:09:02;;;;;;;119.50;47.80;;;6.20;99.90;;;;;;5034194;28;20422;-77
2022/01/26 14:11:28;;;;;;;119.97;48.90;;;6.10;99.90;;;;;;5033879;28;20052;-77
2022/01/26 14:13:58;;;;;;;129.60;49.95;;;6.10;99.90;;;;;;5034049;28;20037;-78
2022/01/26 14:16:26;;;;;;;119.35;48.00;;;6.00;99.90;;;;;;5033715;28;20324;-77
2022/01/26 14:19:12;;;;;;;121.43;48.38;;;6.00;99.90;;;;;;5015903;28;20117;-77
2022/01/26 14:26:50;;;;;;;126.25;49.60;;;6.00;99.90;;;;;;5033873;28;20034;-78
2022/01/26 14:29:52;;;;;;;124.50;48.75;;;6.00;99.90;;;;;;5033647;28;20040;-78
2022/01/26 15:34:56;;;;;;;135.68;53.42;;;5.90;99.90;;;;;;5012168;28;20038;-74
2022/01/26 15:58:32;;;;;;;146.32;54.20;;;5.70;99.90;;;;;;5012863;28;20392;-74
2022/01/26 16:36:40;;;;;;;139.02;52.92;;;5.70;99.90;;;;;;5031135;28;20026;-74
2022/01/26 16:39:01;;;;;;;141.25;55.60;;;5.70;99.90;;;;;;5030824;28;20025;-74
2022/01/26 18:07:09;;;;;;;142.00;56.95;;;5.50;99.90;;;;;;5033760;28;20517;-78
2022/01/26 18:49:38;;;;;;;130.38;52.63;;;5.50;99.90;;;;;;5011512;28;20673;-78
2022/01/26 18:52:05;;;;;;;139.93;54.47;;;5.50;99.90;;;;;;4994139;28;20026;-78
2022/01/26 18:54:33;;;;;;;141.27;55.28;;;5.40;99.90;;;;;;5011438;28;20018;-78
2022/01/26 18:57:03;;;;;;;136.35;54.53;;;5.40;99.90;;;;;;4994148;28;20582;-77
2022/01/26 18:59:29;;;;;;;132.77;53.60;;;5.40;99.90;;;;;;4994088;28;20408;-78
2022/01/26 19:01:57;;;;;;;134.57;54.60;;;5.40;99.90;;;;;;5012156;28;20472;-78
2022/01/26 19:04:28;;;;;;;145.40;55.53;;;5.40;99.90;;;;;;4993758;28;20113;-77
2022/01/26 19:06:54;;;;;;;139.88;55.10;;;5.40;99.90;;;;;;5011438;28;20030;-78
2022/01/26 19:09:24;;;;;;;137.45;55.28;;;5.40;99.90;;;;;;5011932;28;20593;-77
2022/01/26 19:11:50;;;;;;;136.18;54.65;;;5.40;99.90;;;;;;5012161;28;20028;-77
2022/01/26 19:14:15;;;;;;;132.05;52.47;;;5.40;99.90;;;;;;5011336;28;20395;-78
2022/01/26 19:16:53;;;;;;;141.48;54.95;;;5.40;99.90;;;;;;4994208;28;20022;-78
2022/01/26 19:27:34;;;;;;;129.15;53.10;;;5.40;99.90;;;;;;5011177;28;20476;-82
2022/01/26 19:30:22;;;;;;;134.05;53.78;;;5.40;99.90;;;;;;5007026;28;20026;-81
2022/01/26 19:43:48;;;;;;;136.20;54.30;;;5.30;99.90;;;;;;5011374;28;20570;-77
2022/01/26 19:51:48;;;;;;;123.90;50.70;;;5.10;99.90;;;;;;4996899;28;20048;-78
2022/01/26 19:54:14;;;;;;;124.07;53.10;;;5.10;99.90;;;;;;4999094;28;20018;-78
2022/01/26 19:56:39;;;;;;;140.10;56.25;;;5.10;99.90;;;;;;5007776;28;20037;-78
2022/01/26 19:59:05;;;;;;;133.48;54.47;;;5.10;99.90;;;;;;4994989;28;20030;-78